Dn Vatan — TCZN6 — position and weather

sailwx.info

Track history (hours):
 
Tides and Currents Weather Stations Pressure Air Temp Water Temp Dewpoint Dewpoint Depression Visibility Wind Speed Wind Dir Waves Ship Positions

Dn Vatan

Last reported at 2016-Feb-03 08:25 UTC. Time now 2016-Feb-10 02:47 UTC.
Position N 40°45' E 029°29'.

Length 196 m; draft 6.6 m.

Type: Cargo ship. MMSI: 270991365.

Date/timePositionNaut miles runAvg speedWind from/ knotsBaromVisibWave heightAir tempDewpointWater temp
2016-Feb-03 08:25N 40°45' E 029°29'7 8.7
2016-Feb-03 07:33N 40°43' E 029°19'1010.2
2016-Feb-03 06:33N 40°43' E 029°06'1412.9
2016-Feb-03 05:30N 40°43' E 028°48'12911.7
2016-Feb-02 18:29N 40°01' E 026°09'9 9.0
2016-Feb-02 17:30N 39°57' E 025°58'1212.8
2016-Feb-02 16:33N 39°46' E 025°51'7513.7
2016-Feb-02 11:04N 38°40' E 025°06'7712.9
2016-Feb-02 05:07N 37°36' E 024°11'712.8
2016-Feb-02 04:33N 37°30' E 024°07'1212.2
2016-Feb-02 03:33N 37°19' E 023°59'1212.3
2016-Feb-02 02:33N 37°08' E 023°51'43912.2
2016-Jan-31 14:32N 36°26' E 014°45'1313.5
2016-Jan-31 13:33N 36°29' E 014°29'1313.2
2016-Jan-31 12:34N 36°33' E 014°13'1313.1
2016-Jan-31 11:33N 36°36' E 013°57'1313.4
2016-Jan-31 10:33N 36°40' E 013°41'1313.3
2016-Jan-31 09:33N 36°45' E 013°26'1312.8
2016-Jan-31 08:31N 36°49' E 013°10'1413.2
2016-Jan-31 07:27N 36°54' E 012°54'1213.3
2016-Jan-31 06:31N 36°58' E 012°39'59112.5
2016-Jan-29 07:21N 36°39' E 000°22'12113.6
2016-Jan-28 22:26N 36°22' W 002°07'1314.8
2016-Jan-28 21:32N 36°20' W 002°24'1413.9
2016-Jan-28 20:33N 36°18' W 002°41'1212.7
2016-Jan-28 19:33N 36°17' W 002°56'11113.5
2016-Jan-28 11:22N 36°00' W 005°12'1215.2
2016-Jan-28 10:34N 35°57' W 005°27'8113.3
2016-Jan-28 04:28N 36°05' W 007°06'5313.1
2016-Jan-28 00:28N 36°18' W 008°09'1212.2
2016-Jan-27 23:31N 36°21' W 008°23'1312.9
2016-Jan-27 22:31N 36°25' W 008°38'1313.1
2016-Jan-27 21:31N 36°28' W 008°54'1312.5
2016-Jan-27 20:28N 36°32' W 009°10'1312.6
2016-Jan-27 19:28N 36°38' W 009°23'3712.3
2016-Jan-27 16:28N 37°13' W 009°41'1312.7
2016-Jan-27 15:28N 37°25' W 009°45'1312.6
2016-Jan-27 14:28N 37°37' W 009°48'2412.4
2016-Jan-27 12:32N 38°01' W 009°54'1111.6
2016-Jan-27 11:33N 38°12' W 009°58'1312.8
2016-Jan-27 10:33N 38°24' W 010°01'1312.6
2016-Jan-27 09:33N 38°37' W 010°05'1212.2
2016-Jan-27 08:33N 38°48' W 010°07'1312.8
2016-Jan-27 07:33N 39°01' W 010°07'1212.5
2016-Jan-27 06:33N 39°14' W 010°07'1413.0
2016-Jan-27 05:29N 39°28' W 010°07'1312.9
2016-Jan-27 04:29N 39°41' W 010°07'1212.2
2016-Jan-27 03:31N 39°52' W 010°07'1312.8
2016-Jan-27 02:32N 40°05' W 010°07'1312.0
2016-Jan-27 01:28N 40°18' W 010°07'1212.0
2016-Jan-27 00:28N 40°30' W 010°07'1312.7
2016-Jan-26 23:28N 40°42' W 010°07'1212.2
2016-Jan-26 22:28N 40°55' W 010°07'1212.5
2016-Jan-26 21:31N 41°06' W 010°07'1512.2
2016-Jan-26 20:16N 41°22' W 010°06'911.4
2016-Jan-26 19:31N 41°30' W 010°06'1211.9
2016-Jan-26 18:31N 41°42' W 010°06'1211.7
2016-Jan-26 17:28N 41°54' W 010°07'  
Track history (hours):
 
Tides and Currents Weather Stations Pressure Air Temp Water Temp Dewpoint Dewpoint Depression Visibility Wind Speed Wind Dir Waves Ship Positions

Dn Vatan

Last reported at 2016-Feb-03 08:25 UTC. Time now 2016-Feb-10 02:47 UTC.
Position N 40°45' E 029°29'.

Length 196 m; draft 6.6 m.

Type: Cargo ship. MMSI: 270991365.

Date/timePositionNaut miles runAvg speedWind from/ knotsBaromVisibWave heightAir tempDewpointWater temp
2016-Feb-03 08:25N 40°45' E 029°29'7 8.7
2016-Feb-03 07:33N 40°43' E 029°19'1010.2
2016-Feb-03 06:33N 40°43' E 029°06'1412.9
2016-Feb-03 05:30N 40°43' E 028°48'12911.7
2016-Feb-02 18:29N 40°01' E 026°09'9 9.0
2016-Feb-02 17:30N 39°57' E 025°58'1212.8
2016-Feb-02 16:33N 39°46' E 025°51'7513.7
2016-Feb-02 11:04N 38°40' E 025°06'7712.9
2016-Feb-02 05:07N 37°36' E 024°11'712.8
2016-Feb-02 04:33N 37°30' E 024°07'1212.2
2016-Feb-02 03:33N 37°19' E 023°59'1212.3
2016-Feb-02 02:33N 37°08' E 023°51'43912.2
2016-Jan-31 14:32N 36°26' E 014°45'1313.5
2016-Jan-31 13:33N 36°29' E 014°29'1313.2
2016-Jan-31 12:34N 36°33' E 014°13'1313.1
2016-Jan-31 11:33N 36°36' E 013°57'1313.4
2016-Jan-31 10:33N 36°40' E 013°41'1313.3
2016-Jan-31 09:33N 36°45' E 013°26'1312.8
2016-Jan-31 08:31N 36°49' E 013°10'1413.2
2016-Jan-31 07:27N 36°54' E 012°54'1213.3
2016-Jan-31 06:31N 36°58' E 012°39'59112.5
2016-Jan-29 07:21N 36°39' E 000°22'12113.6
2016-Jan-28 22:26N 36°22' W 002°07'1314.8
2016-Jan-28 21:32N 36°20' W 002°24'1413.9
2016-Jan-28 20:33N 36°18' W 002°41'1212.7
2016-Jan-28 19:33N 36°17' W 002°56'11113.5
2016-Jan-28 11:22N 36°00' W 005°12'1215.2
2016-Jan-28 10:34N 35°57' W 005°27'8113.3
2016-Jan-28 04:28N 36°05' W 007°06'5313.1
2016-Jan-28 00:28N 36°18' W 008°09'1212.2
2016-Jan-27 23:31N 36°21' W 008°23'1312.9
2016-Jan-27 22:31N 36°25' W 008°38'1313.1
2016-Jan-27 21:31N 36°28' W 008°54'1312.5
2016-Jan-27 20:28N 36°32' W 009°10'1312.6
2016-Jan-27 19:28N 36°38' W 009°23'3712.3
2016-Jan-27 16:28N 37°13' W 009°41'1312.7
2016-Jan-27 15:28N 37°25' W 009°45'1312.6
2016-Jan-27 14:28N 37°37' W 009°48'2412.4
2016-Jan-27 12:32N 38°01' W 009°54'1111.6
2016-Jan-27 11:33N 38°12' W 009°58'1312.8
2016-Jan-27 10:33N 38°24' W 010°01'1312.6
2016-Jan-27 09:33N 38°37' W 010°05'1212.2
2016-Jan-27 08:33N 38°48' W 010°07'1312.8
2016-Jan-27 07:33N 39°01' W 010°07'1212.5
2016-Jan-27 06:33N 39°14' W 010°07'1413.0
2016-Jan-27 05:29N 39°28' W 010°07'1312.9
2016-Jan-27 04:29N 39°41' W 010°07'1212.2
2016-Jan-27 03:31N 39°52' W 010°07'1312.8
2016-Jan-27 02:32N 40°05' W 010°07'1312.0
2016-Jan-27 01:28N 40°18' W 010°07'1212.0
2016-Jan-27 00:28N 40°30' W 010°07'1312.7
2016-Jan-26 23:28N 40°42' W 010°07'1212.2
2016-Jan-26 22:28N 40°55' W 010°07'1212.5
2016-Jan-26 21:31N 41°06' W 010°07'1512.2
2016-Jan-26 20:16N 41°22' W 010°06'911.4
2016-Jan-26 19:31N 41°30' W 010°06'1211.9
2016-Jan-26 18:31N 41°42' W 010°06'1211.7
2016-Jan-26 17:28N 41°54' W 010°07'  

Dump ship's entire track history